Airfield :
LOGIN :

Register | Disclaimer

   EN    FR    IT 

 










Legend :    VFR   Marginal VFR   IFR   Intensive IFR   Very Intensive IFR
Visi :
Ceiling :
>= 8 km
>= 3000ft
5 to 8 km
1000 to 3000 ft
1500m to 5 km
500 to 1000 ft
800 to 1500m
200 to 500 ft
< 800m
< 200 ft
Symbols :   Thunderstorms  Fog  Heavy snow  Heavy precipitations  Wind > 20 kt
SIGMETs :     Misc.  Thunderstorms  Icing  Turbulence  Mountain Waves  Volcanic Ashes







- Airport Elevation : 197 ft
- IATA code : XOG
- Download approach charts


LFMO - Orange

CURRENT METAR :
  • 210830Z AUTO 36004KT 320V050 CAVOK 22/13 Q1013 NOSIG

EXPIRED METARs :
  • 210800Z AUTO 35004KT CAVOK 20/13 Q1013 NOSIG
  • 210730Z AUTO VRB02KT CAVOK 19/12 Q1013 NOSIG
  • 210700Z AUTO VRB02KT CAVOK 17/13 Q1013 NOSIG
  • 210630Z AUTO 30003KT CAVOK 16/13 Q1013 NOSIG
  • 210600Z AUTO VRB02KT 9999 BKN072 15/12 Q1013 NOSIG

TAF TAF LFMO
Valid from the 21 at 09:00 until the 22 at 09:00 UTC


210800Z 2109/2209 VRB02KT CAVOK
BECMG 2112/2114 4000 SHRA BKN050CB
TEMPO 2114/2116 VRB15G25KT 2000 TSRA BKN040CB
BECMG 2116/2118 9999 BKN070
PROB40
TEMPO 2121/2204 4000 SHRA BKN060TCU
No reported NOTAMs for that airfield.



MET'MAP, your aeronautical weather chart ! - Copyright ORBIFLY December 2007 - Disclaimer

ORBIFLY MET'MAP TEAM :

Programming & Development : Alexandra Zaïnal
Concept & Development : Baudouin d'Aumeries
Co-Development & Prog : Marc-Olivier Méhu
Technical & hardware support : Manuel Goepfert

Contact : metmap@orbifly.com




SOURCES & CREDITS :

   NOAA